Time;durP1;ratioP1;P1;durP2;ratioP2;P2;SDS_P1;SDS_P2;PMS_P1;PMS_P2;Temp;Humidity;BMP_temperature;BMP_pressure;BME280_temperature;BME280_humidity;BME280_pressure;Samples;Min_cycle;Max_cycle;Signal;HPM_P1;HPM_P2
2024/03/02 00:01:35;;;;;;;47.45;28.25;;;7.30;99.90;;;;;;5027417;28;20041;-52
2024/03/02 00:04:06;;;;;;;56.80;28.60;;;7.30;99.90;;;;;;5026621;28;20061;-50
2024/03/02 00:06:34;;;;;;;50.75;27.88;;;7.30;99.90;;;;;;5028351;28;20099;-48
2024/03/02 00:09:01;;;;;;;46.60;27.50;;;7.30;99.90;;;;;;5026579;28;20572;-50
2024/03/02 00:11:28;;;;;;;53.55;29.20;;;7.30;99.90;;;;;;5027048;28;20064;-50
2024/03/02 00:13:55;;;;;;;52.08;27.95;;;7.40;99.90;;;;;;5027070;28;20050;-51
2024/03/02 00:16:23;;;;;;;54.20;27.10;;;7.30;99.90;;;;;;5029304;28;20132;-45
2024/03/02 00:18:50;;;;;;;45.95;27.25;;;7.40;99.90;;;;;;5026326;28;20256;-49
2024/03/02 00:21:20;;;;;;;51.97;27.52;;;7.40;99.90;;;;;;5023041;28;20041;-45
2024/03/02 00:23:51;;;;;;;50.33;28.33;;;7.40;99.90;;;;;;5025915;28;20053;-48
2024/03/02 00:26:19;;;;;;;48.53;26.58;;;7.40;99.90;;;;;;5025690;28;20062;-51
2024/03/02 00:28:45;;;;;;;50.45;28.58;;;7.40;99.90;;;;;;5027371;28;20041;-53
2024/03/02 00:31:13;;;;;;;55.80;28.45;;;7.40;99.90;;;;;;5026681;28;20055;-50
2024/03/02 00:33:48;;;;;;;49.80;28.20;;;7.40;99.90;;;;;;5028027;28;20057;-49
2024/03/02 00:36:21;;;;;;;50.63;27.45;;;7.40;99.90;;;;;;5030052;28;20510;-44
2024/03/02 00:38:50;;;;;;;52.70;28.65;;;7.40;99.90;;;;;;5027924;28;20122;-49
2024/03/02 00:41:25;;;;;;;53.47;27.52;;;7.40;99.90;;;;;;5028475;28;20046;-47
2024/03/02 00:44:00;;;;;;;49.20;27.50;;;7.40;99.90;;;;;;5026545;28;20592;-50
2024/03/02 00:46:30;;;;;;;49.80;27.98;;;7.40;99.90;;;;;;5027470;28;20126;-43
2024/03/02 00:49:00;;;;;;;50.70;28.00;;;7.40;99.90;;;;;;5026578;28;20041;-51
2024/03/02 00:51:29;;;;;;;51.28;28.20;;;7.40;99.90;;;;;;5008358;28;20045;-48
2024/03/02 00:53:59;;;;;;;51.83;27.45;;;7.40;99.90;;;;;;5030634;28;20061;-48
2024/03/02 00:56:26;;;;;;;48.95;27.13;;;7.40;99.90;;;;;;5027095;28;20521;-46
2024/03/02 00:58:53;;;;;;;53.50;29.00;;;7.40;99.90;;;;;;5027260;28;20142;-49
2024/03/02 01:01:21;;;;;;;51.58;27.80;;;7.40;99.90;;;;;;5027205;28;20037;-54
2024/03/02 01:03:48;;;;;;;58.33;28.65;;;7.30;99.90;;;;;;5026764;28;20045;-43
2024/03/02 01:06:16;;;;;;;52.40;29.20;;;7.30;99.90;;;;;;5026380;28;20045;-45
2024/03/02 01:08:44;;;;;;;50.53;27.42;;;7.30;99.90;;;;;;5026907;28;20438;-48
2024/03/02 01:11:11;;;;;;;45.13;26.10;;;7.30;99.90;;;;;;5026730;28;20061;-49
2024/03/02 01:13:38;;;;;;;51.78;28.33;;;7.30;99.90;;;;;;5027198;28;20095;-44
2024/03/02 01:16:05;;;;;;;53.00;29.63;;;7.30;99.90;;;;;;5026983;28;20483;-46
2024/03/02 01:18:32;;;;;;;53.70;29.17;;;7.30;99.90;;;;;;5026641;28;20103;-48
2024/03/02 01:20:59;;;;;;;53.80;27.85;;;7.20;99.90;;;;;;5025963;28;20103;-50
2024/03/02 01:23:26;;;;;;;49.55;26.77;;;7.20;99.90;;;;;;5025986;28;20512;-45
2024/03/02 01:25:53;;;;;;;53.33;29.10;;;7.20;99.90;;;;;;5026057;28;20091;-47
2024/03/02 01:28:22;;;;;;;51.90;27.58;;;7.20;99.90;;;;;;5025813;28;20049;-47
2024/03/02 01:30:49;;;;;;;50.90;27.92;;;7.20;99.90;;;;;;5026265;28;20049;-50
2024/03/02 01:33:18;;;;;;;53.65;27.80;;;7.10;99.90;;;;;;5023998;28;20120;-48
2024/03/02 01:35:45;;;;;;;48.70;27.35;;;7.10;99.90;;;;;;5028279;28;20045;-46
2024/03/02 01:38:12;;;;;;;49.25;27.80;;;7.10;99.90;;;;;;5025854;28;20491;-47
2024/03/02 01:40:39;;;;;;;54.90;28.77;;;7.10;99.90;;;;;;5025576;28;20506;-52
2024/03/02 01:43:07;;;;;;;56.17;29.17;;;7.10;99.90;;;;;;5025951;28;20042;-45
2024/03/02 01:45:37;;;;;;;50.58;28.23;;;7.10;99.90;;;;;;5026413;28;20045;-47
2024/03/02 01:48:06;;;;;;;48.30;27.13;;;7.10;99.90;;;;;;5025184;28;20056;-47
2024/03/02 01:50:34;;;;;;;54.38;27.23;;;7.10;99.90;;;;;;5029360;28;20041;-49
2024/03/02 01:53:02;;;;;;;49.88;27.05;;;7.10;99.90;;;;;;5034421;28;20041;-48
2024/03/02 01:55:30;;;;;;;50.00;27.38;;;7.10;99.90;;;;;;5030492;28;20049;-48
2024/03/02 01:57:58;;;;;;;52.38;28.27;;;7.10;99.90;;;;;;5026564;28;20046;-50
2024/03/02 02:00:26;;;;;;;49.42;27.25;;;7.00;99.90;;;;;;5026890;28;20046;-50
2024/03/02 02:02:54;;;;;;;51.83;27.23;;;7.00;99.90;;;;;;5023930;28;20083;-48
2024/03/02 02:05:22;;;;;;;53.35;28.13;;;7.00;99.90;;;;;;5029948;28;20038;-48
2024/03/02 02:07:49;;;;;;;49.33;26.77;;;7.00;99.90;;;;;;5030023;28;20073;-52
2024/03/02 02:10:16;;;;;;;49.05;25.50;;;7.00;99.90;;;;;;5029741;28;20049;-49
2024/03/02 02:12:43;;;;;;;54.22;28.40;;;7.00;99.90;;;;;;5028991;28;20132;-52
2024/03/02 02:15:30;;;;;;;51.80;28.60;;;7.00;99.90;;;;;;5027702;28;20054;-50
2024/03/02 02:17:58;;;;;;;52.17;28.70;;;7.00;99.90;;;;;;5029683;28;20073;-50
2024/03/02 02:20:26;;;;;;;55.47;28.33;;;7.00;99.90;;;;;;5031094;28;20399;-45
2024/03/02 02:23:13;;;;;;;54.05;28.45;;;6.90;99.90;;;;;;5029560;28;20128;-48
2024/03/02 02:25:40;;;;;;;53.42;27.45;;;6.90;99.90;;;;;;5029078;28;20124;-47
2024/03/02 02:28:07;;;;;;;49.75;27.60;;;6.90;99.90;;;;;;5028703;28;20050;-46
2024/03/02 02:30:34;;;;;;;51.85;28.23;;;6.90;99.90;;;;;;5027777;28;20153;-46
2024/03/02 02:33:01;;;;;;;54.42;26.83;;;6.90;99.90;;;;;;5028797;28;20050;-51
2024/03/02 02:35:29;;;;;;;50.10;26.92;;;7.00;99.90;;;;;;5032057;28;20053;-49
2024/03/02 02:37:58;;;;;;;47.75;27.00;;;7.00;99.90;;;;;;5029317;28;20053;-49
2024/03/02 02:40:25;;;;;;;48.88;26.17;;;7.00;99.90;;;;;;5025509;28;20053;-47
2024/03/02 02:42:52;;;;;;;52.13;28.33;;;7.00;99.90;;;;;;5028409;28;20088;-51
2024/03/02 02:45:20;;;;;;;47.40;26.08;;;7.00;99.90;;;;;;5024936;28;20042;-52
2024/03/02 02:47:47;;;;;;;48.63;27.67;;;7.00;99.90;;;;;;5028817;28;20071;-50
2024/03/02 02:50:14;;;;;;;49.25;26.60;;;7.10;99.90;;;;;;5028645;28;20103;-49
2024/03/02 02:52:42;;;;;;;49.03;26.92;;;7.10;99.90;;;;;;5030582;28;20059;-47
2024/03/02 02:55:11;;;;;;;48.53;26.40;;;7.10;99.90;;;;;;5029186;28;20073;-48
2024/03/02 02:57:40;;;;;;;54.58;28.17;;;7.20;99.90;;;;;;5028803;28;20445;-47
2024/03/02 03:00:18;;;;;;;54.53;27.55;;;7.20;99.90;;;;;;5027281;28;20051;-48
2024/03/02 03:02:48;;;;;;;49.50;26.27;;;7.20;99.90;;;;;;5023521;28;20073;-49
2024/03/02 03:05:17;;;;;;;45.55;25.70;;;7.20;99.90;;;;;;5028989;28;20499;-46
2024/03/02 03:07:44;;;;;;;47.15;26.58;;;7.30;99.90;;;;;;5029525;28;20068;-51
2024/03/02 03:10:12;;;;;;;46.63;26.42;;;7.30;99.90;;;;;;5031587;28;20042;-48
2024/03/02 03:12:42;;;;;;;48.53;25.63;;;7.30;99.90;;;;;;5030358;28;20057;-50
2024/03/02 03:15:11;;;;;;;51.42;25.60;;;7.40;99.90;;;;;;5012807;28;20513;-48
2024/03/02 03:17:38;;;;;;;44.22;23.88;;;7.40;99.90;;;;;;5029315;28;20136;-47
2024/03/02 03:20:05;;;;;;;47.50;25.13;;;7.40;99.90;;;;;;5028365;28;20076;-49
2024/03/02 03:22:33;;;;;;;44.05;24.77;;;7.40;99.90;;;;;;5027811;28;20120;-50
2024/03/02 03:25:00;;;;;;;51.22;25.25;;;7.40;99.90;;;;;;5028077;28;20459;-50
2024/03/02 03:27:27;;;;;;;43.90;24.08;;;7.40;99.90;;;;;;5028524;28;20118;-51
2024/03/02 03:29:54;;;;;;;44.35;23.90;;;7.40;99.90;;;;;;5027971;28;20129;-48
2024/03/02 03:32:21;;;;;;;46.00;24.83;;;7.40;99.90;;;;;;5024645;28;20594;-49
2024/03/02 03:34:48;;;;;;;38.17;21.20;;;7.40;99.90;;;;;;5030348;28;20057;-49
2024/03/02 03:37:15;;;;;;;43.95;23.63;;;7.50;99.90;;;;;;5028004;28;20049;-46
2024/03/02 03:39:42;;;;;;;37.95;21.77;;;7.50;99.90;;;;;;5028074;28;20079;-49
2024/03/02 03:42:09;;;;;;;42.78;23.98;;;7.50;99.90;;;;;;5027920;28;20037;-50
2024/03/02 03:44:36;;;;;;;35.67;20.75;;;7.50;99.90;;;;;;5027662;28;20528;-49
2024/03/02 03:47:03;;;;;;;38.13;21.73;;;7.50;99.90;;;;;;5028644;28;20050;-48
2024/03/02 03:49:30;;;;;;;37.25;21.17;;;7.50;99.90;;;;;;5027720;28;20181;-47
2024/03/02 03:51:57;;;;;;;39.03;21.20;;;7.50;99.90;;;;;;5027735;28;20538;-46
2024/03/02 03:54:24;;;;;;;40.03;22.42;;;7.50;99.90;;;;;;5032812;28;20073;-52
2024/03/02 03:56:51;;;;;;;35.90;21.50;;;7.50;99.90;;;;;;5026032;28;20442;-50
2024/03/02 03:59:18;;;;;;;37.00;20.55;;;7.50;99.90;;;;;;5024443;28;20052;-56
2024/03/02 04:01:45;;;;;;;33.88;20.88;;;7.40;99.90;;;;;;5026548;28;20049;-48
2024/03/02 04:04:12;;;;;;;31.23;17.58;;;7.40;99.90;;;;;;5028742;28;20487;-48
2024/03/02 04:06:39;;;;;;;33.88;19.98;;;7.30;99.90;;;;;;5012235;28;20045;-48
2024/03/02 04:09:05;;;;;;;34.33;19.42;;;7.30;99.90;;;;;;5029660;28;20057;-47
2024/03/02 04:11:32;;;;;;;32.80;19.05;;;7.20;99.90;;;;;;5029156;28;20046;-50
2024/03/02 04:13:59;;;;;;;29.98;17.40;;;7.20;99.90;;;;;;5028059;28;20053;-50
2024/03/02 04:16:26;;;;;;;31.23;16.25;;;7.20;99.90;;;;;;5029297;28;20041;-53
2024/03/02 04:18:54;;;;;;;28.27;17.10;;;7.10;99.90;;;;;;5028460;28;20060;-46
2024/03/02 04:21:21;;;;;;;27.25;16.95;;;7.10;99.90;;;;;;5028665;28;20045;-47
2024/03/02 04:23:48;;;;;;;28.33;16.98;;;7.10;99.90;;;;;;5028928;28;20136;-46
2024/03/02 04:26:19;;;;;;;28.77;16.50;;;7.10;99.90;;;;;;5027757;28;20052;-47
2024/03/02 04:28:46;;;;;;;31.17;17.42;;;7.00;99.90;;;;;;5026645;28;20084;-54
2024/03/02 04:31:15;;;;;;;30.27;17.20;;;6.90;99.90;;;;;;5026321;28;20045;-48
2024/03/02 04:33:42;;;;;;;29.63;17.17;;;6.90;99.90;;;;;;5025890;28;20041;-44
2024/03/02 04:36:09;;;;;;;29.75;16.92;;;6.80;99.90;;;;;;5032600;28;20071;-48
2024/03/02 04:38:37;;;;;;;30.70;16.65;;;6.80;99.90;;;;;;5028402;28;20132;-49
2024/03/02 04:41:07;;;;;;;30.48;17.45;;;6.80;99.90;;;;;;5026927;28;20064;-47
2024/03/02 04:43:35;;;;;;;32.47;18.35;;;6.80;99.90;;;;;;5027297;28;20049;-50
2024/03/02 04:46:01;;;;;;;29.92;17.65;;;6.80;99.90;;;;;;5026287;28;20053;-46
2024/03/02 04:48:29;;;;;;;31.25;17.58;;;6.70;99.90;;;;;;5027315;28;20045;-47
2024/03/02 04:50:56;;;;;;;30.40;17.48;;;6.70;99.90;;;;;;5025962;28;20790;-48
2024/03/02 04:53:23;;;;;;;32.38;18.45;;;6.70;99.90;;;;;;5028795;28;20225;-49
2024/03/02 04:58:36;;;;;;;32.47;18.60;;;6.70;99.90;;;;;;5025345;28;20107;-53
2024/03/02 05:01:03;;;;;;;31.85;17.38;;;6.70;99.90;;;;;;5026184;28;20037;-48
2024/03/02 05:03:30;;;;;;;33.05;18.65;;;6.60;99.90;;;;;;5027333;28;20038;-49
2024/03/02 05:05:57;;;;;;;31.80;18.52;;;6.60;99.90;;;;;;5027708;28;20037;-45
2024/03/02 05:08:24;;;;;;;32.60;18.52;;;6.50;99.90;;;;;;5027538;28;20108;-53
2024/03/02 05:10:51;;;;;;;32.97;18.75;;;6.50;99.90;;;;;;5025324;28;20042;-44
2024/03/02 05:13:18;;;;;;;35.40;19.83;;;6.60;99.90;;;;;;5025211;28;20403;-46
2024/03/02 05:15:45;;;;;;;34.15;18.88;;;6.50;99.90;;;;;;5025612;28;20506;-49
2024/03/02 05:18:12;;;;;;;35.72;19.92;;;6.50;99.90;;;;;;5025937;28;20073;-51
2024/03/02 05:20:39;;;;;;;35.22;19.98;;;6.40;99.90;;;;;;5026830;28;20049;-48
2024/03/02 05:23:06;;;;;;;34.95;19.45;;;6.40;99.90;;;;;;5024877;28;20493;-44
2024/03/02 05:25:35;;;;;;;32.35;18.42;;;6.40;99.90;;;;;;5024729;28;20475;-47
2024/03/02 05:28:02;;;;;;;36.10;19.27;;;6.40;99.90;;;;;;5025617;28;20087;-47
2024/03/02 05:30:29;;;;;;;34.47;18.33;;;6.40;99.90;;;;;;5024015;28;20063;-45
2024/03/02 05:32:56;;;;;;;36.20;19.45;;;6.40;99.90;;;;;;5007108;28;20461;-48
2024/03/02 05:35:23;;;;;;;33.03;18.88;;;6.40;99.90;;;;;;5020329;28;20064;-51
2024/03/02 05:37:50;;;;;;;35.25;18.88;;;6.30;99.90;;;;;;5025468;28;20060;-47
2024/03/02 05:40:17;;;;;;;39.20;20.40;;;6.30;99.90;;;;;;5024358;28;20081;-49
2024/03/02 05:42:47;;;;;;;36.03;18.02;;;6.30;99.90;;;;;;5022600;28;20041;-49
2024/03/02 05:45:16;;;;;;;35.42;18.70;;;6.30;99.90;;;;;;5023799;28;20051;-46
2024/03/02 05:47:43;;;;;;;36.42;19.73;;;6.20;99.90;;;;;;5024490;28;20065;-49
2024/03/02 05:50:10;;;;;;;37.30;19.88;;;6.20;99.90;;;;;;5024339;28;20049;-50
2024/03/02 05:52:37;;;;;;;36.75;18.52;;;6.20;99.90;;;;;;5025854;28;20044;-45
2024/03/02 05:55:04;;;;;;;38.97;20.48;;;6.20;99.90;;;;;;5025807;28;20405;-50
2024/03/02 05:57:45;;;;;;;40.78;21.75;;;6.20;99.90;;;;;;5007210;28;20037;-51
2024/03/02 06:00:12;;;;;;;34.60;19.30;;;6.20;99.90;;;;;;5021517;28;20056;-48
2024/03/02 06:02:40;;;;;;;37.22;19.17;;;6.10;99.90;;;;;;5020467;28;20136;-52
2024/03/02 06:05:07;;;;;;;38.75;19.98;;;6.10;99.90;;;;;;5022254;28;20087;-47
2024/03/02 06:07:34;;;;;;;37.72;20.92;;;6.10;99.90;;;;;;5006067;28;20049;-52
2024/03/02 06:10:01;;;;;;;37.60;21.63;;;6.10;99.90;;;;;;5024171;28;20470;-50
2024/03/02 06:12:31;;;;;;;37.92;20.08;;;6.10;99.90;;;;;;5025107;28;20049;-50
2024/03/02 06:14:58;;;;;;;35.15;20.38;;;6.10;99.90;;;;;;5025172;28;20052;-53
2024/03/02 06:17:25;;;;;;;41.70;20.73;;;6.20;99.90;;;;;;5024778;28;20132;-47
2024/03/02 06:19:52;;;;;;;36.92;19.67;;;6.20;99.90;;;;;;5024541;28;20127;-50
2024/03/02 06:22:19;;;;;;;35.55;19.98;;;6.20;99.90;;;;;;5023532;28;20042;-48
2024/03/02 06:24:46;;;;;;;37.92;20.83;;;6.20;99.90;;;;;;5006474;28;20069;-51
2024/03/02 06:27:13;;;;;;;35.20;18.38;;;6.20;99.90;;;;;;5024129;28;20499;-51
2024/03/02 06:29:40;;;;;;;34.33;19.60;;;6.20;99.90;;;;;;5024045;28;20265;-51
2024/03/02 06:32:07;;;;;;;31.50;17.95;;;6.20;99.90;;;;;;5024625;28;20095;-51
2024/03/02 06:34:34;;;;;;;35.22;19.92;;;6.30;99.90;;;;;;5025122;28;20132;-52
2024/03/02 06:37:01;;;;;;;33.88;18.70;;;6.30;99.90;;;;;;5028882;28;20623;-52
2024/03/02 06:39:28;;;;;;;35.88;20.02;;;6.40;99.90;;;;;;5021303;28;20034;-48
2024/03/02 06:41:55;;;;;;;36.17;19.05;;;6.40;99.90;;;;;;5027816;28;20073;-47
2024/03/02 06:44:22;;;;;;;32.30;18.02;;;6.50;99.90;;;;;;5027216;28;20073;-46
2024/03/02 06:46:49;;;;;;;32.40;19.13;;;6.50;99.90;;;;;;5028710;28;20038;-52
2024/03/02 06:49:17;;;;;;;33.85;17.65;;;6.50;99.90;;;;;;5028912;28;20040;-50
2024/03/02 06:51:44;;;;;;;34.85;18.80;;;6.60;99.90;;;;;;5027280;28;20581;-49
2024/03/02 06:54:11;;;;;;;35.10;19.25;;;6.60;99.90;;;;;;5031231;28;20053;-50
2024/03/02 06:56:39;;;;;;;35.25;19.23;;;6.60;99.90;;;;;;5028350;28;20091;-49
2024/03/02 06:59:06;;;;;;;34.58;19.33;;;6.70;99.90;;;;;;5027729;28;20041;-51
2024/03/02 07:01:32;;;;;;;34.22;20.10;;;6.70;99.90;;;;;;5009034;28;20251;-47
2024/03/02 07:03:59;;;;;;;37.30;19.75;;;6.80;99.90;;;;;;5030031;28;20068;-51
2024/03/02 07:06:26;;;;;;;37.30;20.23;;;6.90;99.90;;;;;;5028021;28;20041;-47
2024/03/02 07:08:53;;;;;;;33.15;18.75;;;7.00;99.90;;;;;;5029558;28;20044;-52
2024/03/02 07:11:20;;;;;;;33.92;18.38;;;7.10;99.90;;;;;;5026088;28;20045;-50
2024/03/02 07:13:47;;;;;;;34.17;18.55;;;7.20;99.90;;;;;;5031772;28;20049;-50
2024/03/02 07:16:32;;;;;;;30.38;17.00;;;7.30;99.90;;;;;;5030056;28;20045;-50
2024/03/02 07:19:01;;;;;;;32.08;17.98;;;7.40;99.90;;;;;;5030187;28;20517;-48
2024/03/02 07:21:28;;;;;;;32.42;17.50;;;7.60;99.90;;;;;;5024233;28;20041;-52
2024/03/02 07:23:55;;;;;;;34.00;19.42;;;7.80;99.90;;;;;;5031127;28;20141;-50
2024/03/02 07:26:23;;;;;;;28.70;16.75;;;8.00;99.90;;;;;;5034947;28;20061;-54
2024/03/02 07:28:53;;;;;;;31.92;18.55;;;8.10;99.90;;;;;;5034196;28;20041;-48
2024/03/02 07:31:20;;;;;;;33.40;18.60;;;8.30;99.90;;;;;;5027840;28;20065;-47
2024/03/02 07:33:47;;;;;;;30.15;16.85;;;8.40;99.90;;;;;;5028013;28;20049;-48
2024/03/02 07:36:14;;;;;;;30.05;17.30;;;8.60;99.90;;;;;;5028837;28;20055;-51
2024/03/02 07:38:44;;;;;;;30.77;17.05;;;8.70;99.90;;;;;;5028927;28;20049;-45
2024/03/02 07:41:11;;;;;;;26.80;15.52;;;8.80;99.90;;;;;;5029151;28;20080;-46
2024/03/02 07:43:38;;;;;;;27.77;15.75;;;9.00;99.90;;;;;;5030151;28;20041;-49
2024/03/02 07:46:05;;;;;;;27.05;16.75;;;9.00;99.90;;;;;;5030864;28;20041;-49
2024/03/02 07:48:32;;;;;;;29.98;16.98;;;9.10;99.90;;;;;;5027797;28;20053;-53
2024/03/02 07:51:02;;;;;;;29.25;16.60;;;9.20;99.90;;;;;;5027010;28;20410;-47
2024/03/02 07:53:28;;;;;;;26.23;15.90;;;9.30;99.90;;;;;;5028118;28;20669;-47
2024/03/02 07:56:01;;;;;;;26.50;16.20;;;9.30;99.90;;;;;;5027349;28;20107;-48
2024/03/02 07:58:30;;;;;;;29.00;16.05;;;9.40;99.90;;;;;;5027937;28;20085;-50
2024/03/02 08:00:57;;;;;;;26.83;15.80;;;9.50;99.90;;;;;;5026715;28;20060;-52
2024/03/02 08:03:24;;;;;;;25.23;15.75;;;9.50;99.90;;;;;;5027847;28;20045;-46
2024/03/02 08:05:50;;;;;;;27.58;17.05;;;9.60;99.90;;;;;;5030192;28;20075;-47
2024/03/02 08:08:17;;;;;;;26.52;16.42;;;9.70;99.90;;;;;;5010289;28;20403;-50
2024/03/02 08:10:44;;;;;;;25.38;15.45;;;9.70;99.90;;;;;;5027044;28;20053;-47
2024/03/02 08:13:11;;;;;;;25.23;15.43;;;9.80;99.90;;;;;;5028854;28;20466;-48
2024/03/02 08:15:38;;;;;;;23.73;15.07;;;9.80;99.90;;;;;;5027314;28;20045;-49
2024/03/02 08:18:06;;;;;;;25.42;15.50;;;9.80;99.90;;;;;;5025700;28;20040;-52
2024/03/02 08:20:33;;;;;;;26.00;15.35;;;9.70;99.90;;;;;;5029220;28;20073;-48
2024/03/02 08:23:00;;;;;;;25.33;15.43;;;9.70;99.90;;;;;;5006562;28;20109;-53
2024/03/02 08:25:26;;;;;;;25.65;15.75;;;9.70;99.90;;;;;;5027903;28;20175;-51
2024/03/02 08:27:53;;;;;;;24.65;15.60;;;9.80;99.90;;;;;;5027244;28;20111;-47
2024/03/02 08:30:21;;;;;;;26.98;15.85;;;9.80;99.90;;;;;;5011460;28;20080;-48
2024/03/02 08:32:48;;;;;;;25.90;15.52;;;9.80;99.90;;;;;;5028065;28;20057;-52
2024/03/02 08:35:15;;;;;;;26.13;15.55;;;9.90;99.90;;;;;;5030288;28;20989;-52
2024/03/02 08:37:43;;;;;;;25.73;15.25;;;10.00;99.90;;;;;;5027858;28;20055;-51
2024/03/02 08:40:10;;;;;;;24.15;14.60;;;10.10;99.90;;;;;;5023115;28;20053;-53
2024/03/02 08:42:42;;;;;;;23.95;15.13;;;10.30;99.90;;;;;;5009574;28;20049;-48
2024/03/02 08:45:09;;;;;;;23.25;15.13;;;10.40;99.90;;;;;;5027357;28;20052;-48
2024/03/02 08:47:36;;;;;;;24.08;15.07;;;10.50;99.90;;;;;;5026904;28;20045;-50
2024/03/02 08:50:04;;;;;;;21.63;14.15;;;10.50;99.90;;;;;;5027801;28;20044;-45
2024/03/02 08:52:31;;;;;;;22.92;14.43;;;10.70;99.90;;;;;;5028970;28;20041;-50
2024/03/02 08:54:58;;;;;;;20.27;12.82;;;10.70;99.90;;;;;;5028719;28;20052;-48
2024/03/02 08:57:25;;;;;;;22.38;14.48;;;10.90;99.90;;;;;;5025384;28;20092;-53
2024/03/02 08:59:53;;;;;;;28.33;19.38;;;11.00;99.90;;;;;;5020329;28;20041;-47
2024/03/02 09:02:20;;;;;;;22.35;13.82;;;11.20;99.90;;;;;;5023399;28;20036;-51
2024/03/02 09:04:47;;;;;;;27.10;17.02;;;11.30;99.90;;;;;;5023735;28;20371;-50
2024/03/02 09:07:14;;;;;;;20.65;14.05;;;11.50;99.90;;;;;;5026182;28;20124;-49
2024/03/02 09:09:40;;;;;;;17.52;12.13;;;11.60;99.90;;;;;;5026772;28;21049;-46
2024/03/02 09:12:08;;;;;;;18.15;12.43;;;11.50;99.90;;;;;;5026048;28;20050;-50
2024/03/02 09:14:36;;;;;;;19.70;12.18;;;11.60;99.90;;;;;;5026003;28;20808;-49
2024/03/02 09:17:04;;;;;;;18.77;12.70;;;11.50;99.90;;;;;;5026391;28;20045;-50
2024/03/02 09:19:30;;;;;;;17.25;12.02;;;11.40;99.90;;;;;;5026657;28;20045;-49
2024/03/02 09:21:58;;;;;;;24.55;16.20;;;11.60;99.90;;;;;;5026054;28;20481;-50
2024/03/02 09:24:26;;;;;;;17.95;12.82;;;11.90;99.90;;;;;;5024690;28;20036;-53
2024/03/02 09:26:53;;;;;;;16.05;11.30;;;12.10;99.90;;;;;;5026890;28;20145;-49
2024/03/02 09:29:20;;;;;;;18.33;11.55;;;12.20;99.90;;;;;;5025660;28;20088;-52
2024/03/02 09:31:47;;;;;;;16.85;11.38;;;12.20;99.90;;;;;;5026201;28;20041;-49
2024/03/02 09:34:15;;;;;;;16.30;11.23;;;12.20;99.90;;;;;;5025376;28;20425;-48
2024/03/02 09:36:43;;;;;;;16.40;11.02;;;12.40;99.90;;;;;;5028839;28;20049;-50
2024/03/02 09:39:10;;;;;;;15.60;11.10;;;12.60;99.90;;;;;;5025634;28;20464;-49
2024/03/02 09:41:38;;;;;;;15.68;11.00;;;12.70;99.90;;;;;;5025571;28;20057;-48
2024/03/02 09:44:06;;;;;;;15.65;10.75;;;12.70;99.90;;;;;;5025677;28;20045;-50
2024/03/02 09:46:33;;;;;;;15.82;11.30;;;12.70;99.90;;;;;;5026659;28;20128;-50
2024/03/02 09:49:00;;;;;;;16.13;11.23;;;12.90;99.90;;;;;;5026876;28;20057;-46
2024/03/02 09:51:27;;;;;;;15.05;10.45;;;13.00;99.90;;;;;;5025946;28;20044;-49
2024/03/02 09:53:55;;;;;;;16.77;10.90;;;13.30;99.90;;;;;;5032754;28;20057;-50
2024/03/02 09:56:29;;;;;;;16.90;11.18;;;13.30;99.90;;;;;;5027151;28;20104;-50
2024/03/02 09:58:56;;;;;;;16.17;10.85;;;13.40;99.90;;;;;;5027462;28;20053;-52
2024/03/02 10:01:23;;;;;;;14.73;10.73;;;13.60;99.90;;;;;;5001844;28;20168;-43
2024/03/02 10:03:51;;;;;;;12.68;10.18;;;13.90;99.90;;;;;;5022672;28;20061;-51
2024/03/02 10:06:25;;;;;;;15.23;10.63;;;14.10;99.90;;;;;;5024909;28;20172;-48
2024/03/02 10:08:53;;;;;;;21.58;11.20;;;14.20;99.90;;;;;;5006333;28;20529;-47
2024/03/02 10:11:32;;;;;;;15.85;11.18;;;14.20;99.90;;;;;;5026172;28;20586;-50
2024/03/02 10:14:10;;;;;;;12.18;9.23;;;14.30;99.90;;;;;;5025330;28;20042;-51
2024/03/02 10:16:39;;;;;;;15.68;10.77;;;14.50;99.90;;;;;;5029443;28;20052;-49
2024/03/02 10:19:18;;;;;;;13.27;9.68;;;14.60;99.90;;;;;;5028912;28;20099;-49
2024/03/02 10:21:50;;;;;;;15.77;10.57;;;14.40;99.90;;;;;;5026442;28;20533;-48
2024/03/02 10:24:18;;;;;;;14.20;10.40;;;14.50;99.90;;;;;;5028101;28;20408;-48
2024/03/02 10:26:45;;;;;;;13.45;10.45;;;14.80;99.90;;;;;;5027483;28;20049;-54
2024/03/02 10:29:13;;;;;;;12.95;9.68;;;14.90;99.90;;;;;;5028866;28;20069;-51
2024/03/02 10:31:41;;;;;;;18.58;11.93;;;15.00;99.90;;;;;;5024947;28;20229;-49
2024/03/02 10:34:10;;;;;;;16.08;10.82;;;15.00;99.90;;;;;;5026095;28;20061;-52
2024/03/02 10:36:40;;;;;;;15.70;11.38;;;15.30;99.90;;;;;;5030936;28;20045;-52
2024/03/02 10:39:07;;;;;;;13.50;10.23;;;15.30;99.90;;;;;;5024719;28;20038;-47
2024/03/02 10:41:37;;;;;;;16.30;12.10;;;15.50;99.90;;;;;;5023972;28;20558;-49
2024/03/02 10:44:05;;;;;;;18.30;12.25;;;15.60;99.90;;;;;;5025871;28;20049;-49
2024/03/02 10:46:34;;;;;;;15.10;11.20;;;15.60;99.90;;;;;;5026874;28;20477;-53
2024/03/02 10:49:03;;;;;;;17.55;12.90;;;15.70;99.90;;;;;;5026801;28;20402;-49
2024/03/02 10:51:36;;;;;;;17.63;13.15;;;15.90;99.90;;;;;;5025741;28;20038;-50
2024/03/02 10:54:04;;;;;;;16.63;12.98;;;15.90;99.90;;;;;;5027736;28;20102;-50
2024/03/02 10:56:33;;;;;;;17.98;12.75;;;16.10;99.90;;;;;;5026267;28;20251;-55
2024/03/02 10:59:26;;;;;;;16.23;12.70;;;16.30;99.90;;;;;;5028098;28;20131;-45
2024/03/02 11:02:01;;;;;;;17.52;12.82;;;16.20;99.90;;;;;;5022660;28;20572;-51
2024/03/02 11:04:32;;;;;;;22.40;15.90;;;16.40;99.90;;;;;;5024233;28;20029;-48
2024/03/02 11:07:04;;;;;;;18.30;14.45;;;16.50;99.90;;;;;;5026293;28;20053;-52
2024/03/02 11:09:34;;;;;;;18.05;13.52;;;16.40;99.90;;;;;;5026559;28;20038;-51
2024/03/02 11:12:23;;;;;;;18.58;14.43;;;16.20;99.90;;;;;;5027277;28;20465;-52
2024/03/02 11:14:54;;;;;;;18.23;14.73;;;16.10;99.90;;;;;;5027723;28;20111;-49
2024/03/02 11:17:22;;;;;;;17.73;14.57;;;16.00;99.90;;;;;;5026585;28;20487;-51
2024/03/02 11:19:50;;;;;;;18.58;14.88;;;16.00;99.90;;;;;;5027592;28;20103;-51
2024/03/02 11:22:18;;;;;;;21.40;15.63;;;16.10;99.90;;;;;;5025453;28;20045;-55
2024/03/02 11:24:49;;;;;;;18.63;15.45;;;15.90;99.90;;;;;;5025486;28;20053;-49
2024/03/02 11:27:45;;;;;;;20.67;14.50;;;15.70;99.90;;;;;;5027403;28;20056;-51
2024/03/02 11:30:31;;;;;;;18.20;14.98;;;15.70;99.90;;;;;;5015169;28;20514;-49
2024/03/02 11:33:08;;;;;;;20.02;13.80;;;15.70;99.90;;;;;;5026592;28;20041;-46
2024/03/02 11:35:48;;;;;;;19.48;15.20;;;16.00;99.90;;;;;;5031552;28;20045;-49
2024/03/02 11:38:15;;;;;;;21.73;14.63;;;16.40;99.90;;;;;;5025975;28;20113;-54
2024/03/02 11:40:42;;;;;;;17.30;13.32;;;16.30;99.90;;;;;;5027003;28;20511;-50
2024/03/02 11:43:10;;;;;;;17.17;13.88;;;16.30;99.90;;;;;;5029616;28;20045;-54
2024/03/02 11:45:41;;;;;;;16.80;13.30;;;16.50;99.90;;;;;;5030644;28;20069;-51
2024/03/02 11:48:12;;;;;;;17.60;13.07;;;16.10;99.90;;;;;;5027959;28;20135;-53
2024/03/02 11:50:47;;;;;;;15.52;12.68;;;16.20;99.90;;;;;;5027596;28;20137;-45
2024/03/02 11:53:14;;;;;;;15.95;11.57;;;16.20;99.90;;;;;;5027444;28;20128;-46
2024/03/02 11:55:46;;;;;;;18.13;12.75;;;16.30;99.90;;;;;;5027514;28;20053;-47
2024/03/02 11:58:14;;;;;;;14.15;11.82;;;16.40;99.90;;;;;;5027544;28;20045;-49
2024/03/02 12:00:41;;;;;;;16.15;12.43;;;16.40;99.90;;;;;;5026943;28;20045;-49
2024/03/02 12:03:11;;;;;;;17.20;12.90;;;16.70;99.90;;;;;;5027429;28;20049;-51
2024/03/02 12:05:39;;;;;;;19.83;14.45;;;16.70;99.90;;;;;;5024532;28;20514;-47
2024/03/02 12:08:07;;;;;;;16.35;13.00;;;16.50;99.90;;;;;;5026553;28;20041;-43
2024/03/02 12:10:36;;;;;;;19.50;14.15;;;16.60;99.90;;;;;;5029455;28;20106;-49
2024/03/02 12:13:06;;;;;;;17.35;12.52;;;16.70;99.90;;;;;;5026983;28;20045;-53
2024/03/02 12:15:36;;;;;;;20.55;14.23;;;16.90;99.90;;;;;;5029060;28;20056;-49
2024/03/02 12:18:04;;;;;;;18.75;13.55;;;17.10;99.90;;;;;;5027197;28;20077;-49
2024/03/02 12:20:33;;;;;;;19.58;14.85;;;17.40;99.90;;;;;;5026235;28;20126;-49
2024/03/02 12:23:02;;;;;;;23.00;16.23;;;17.50;99.90;;;;;;5008430;28;20061;-50
2024/03/02 12:25:31;;;;;;;22.67;16.10;;;17.30;99.90;;;;;;5027474;28;20033;-49
2024/03/02 12:28:01;;;;;;;21.33;15.73;;;17.20;99.90;;;;;;5027133;28;20396;-54
2024/03/02 12:30:35;;;;;;;23.73;16.67;;;17.30;99.90;;;;;;5025905;28;20065;-50
2024/03/02 12:33:03;;;;;;;22.42;15.82;;;17.50;99.90;;;;;;5028019;28;20385;-47
2024/03/02 12:35:30;;;;;;;23.60;16.70;;;17.40;99.90;;;;;;5030612;28;20136;-54
2024/03/02 12:37:57;;;;;;;22.17;16.88;;;17.60;99.90;;;;;;5028814;28;20049;-47
2024/03/02 12:40:24;;;;;;;24.70;18.25;;;17.30;99.90;;;;;;5025089;28;20053;-50
2024/03/02 12:42:51;;;;;;;24.10;17.23;;;17.20;99.90;;;;;;5028227;28;20620;-46